Time;durP1;ratioP1;P1;durP2;ratioP2;P2;SDS_P1;SDS_P2;PMS_P1;PMS_P2;Temp;Humidity;BMP_temperature;BMP_pressure;BME280_temperature;BME280_humidity;BME280_pressure;Samples;Min_cycle;Max_cycle;Signal;HPM_P1;HPM_P2
2022/04/04 00:00:16;;;;;;;19.00;11.20;;;;;;;-3.50;78.13;96712.32;108084;1270;34063;-76
2022/04/04 00:03:07;;;;;;;13.70;7.60;;;;;;;-3.53;78.26;96709.52;108092;1270;41255;-76
2022/04/04 00:05:39;;;;;;;18.00;11.20;;;;;;;-3.54;78.43;96710.27;107988;1273;30319;-76
2022/04/04 00:08:10;;;;;;;18.60;11.90;;;;;;;-3.56;78.50;96707.48;108094;1270;32756;-76
2022/04/04 00:10:41;;;;;;;21.30;11.10;;;;;;;-3.54;78.36;96703.73;108017;1271;31333;-76
2022/04/04 00:13:12;;;;;;;9.60;6.40;;;;;;;-3.51;78.28;96699.67;108085;1270;37012;-75
2022/04/04 00:15:43;;;;;;;20.40;11.40;;;;;;;-3.50;78.07;96704.98;108101;1270;32515;-76
2022/04/04 00:18:14;;;;;;;21.30;12.30;;;;;;;-3.49;78.02;96705.52;108099;1270;33359;-76
2022/04/04 00:20:45;;;;;;;19.50;11.60;;;;;;;-3.47;77.99;96706.73;108108;1270;34124;-76
2022/04/04 00:23:16;;;;;;;13.50;9.10;;;;;;;-3.47;77.84;96706.88;108003;1270;43371;-76
2022/04/04 00:25:48;;;;;;;16.20;9.30;;;;;;;-3.48;77.85;96707.52;108057;1270;43249;-75
2022/04/04 00:28:19;;;;;;;18.90;10.00;;;;;;;-3.48;77.74;96704.77;108154;1270;33514;-76
2022/04/04 00:30:50;;;;;;;13.40;7.40;;;;;;;-3.48;77.69;96704.23;108163;1270;33017;-76
2022/04/04 00:33:21;;;;;;;18.50;10.80;;;;;;;-3.50;77.72;96708.78;108069;1270;33014;-76
2022/04/04 00:35:52;;;;;;;13.50;8.80;;;;;;;-3.50;77.73;96710.85;107902;1270;211866;-76
2022/04/04 00:38:23;;;;;;;7.80;5.80;;;;;;;-3.51;77.72;96715.98;108094;1270;35076;-76
2022/04/04 00:40:54;;;;;;;19.70;11.10;;;;;;;-3.53;78.00;96710.85;108124;1270;41918;-75
2022/04/04 00:43:25;;;;;;;13.50;9.30;;;;;;;-3.53;78.08;96711.08;108082;1270;43225;-76
2022/04/04 00:45:56;;;;;;;15.10;9.00;;;;;;;-3.54;78.30;96705.10;108067;1270;50880;-75
2022/04/04 00:48:27;;;;;;;15.60;10.60;;;;;;;-3.55;78.32;96706.45;108093;1270;43835;-76
2022/04/04 00:50:58;;;;;;;14.90;9.30;;;;;;;-3.54;78.27;96704.26;108113;1270;41615;-76
2022/04/04 00:53:31;;;;;;;16.20;9.70;;;;;;;-3.51;78.17;96699.39;108046;1270;43134;-75
2022/04/04 00:56:03;;;;;;;16.50;10.90;;;;;;;-3.47;78.23;96694.23;108081;1270;35576;-76
2022/04/04 00:58:37;;;;;;;18.70;10.40;;;;;;;-3.43;78.19;96691.67;108053;1270;31111;-76
2022/04/04 01:01:08;;;;;;;15.40;9.70;;;;;;;-3.39;78.24;96688.42;108084;1270;32080;-76
2022/04/04 01:03:39;;;;;;;14.40;9.10;;;;;;;-3.39;78.48;96690.83;108034;1270;45263;-76
2022/04/04 01:06:11;;;;;;;20.00;11.20;;;;;;;-3.43;78.59;96689.92;108114;1270;41590;-76
2022/04/04 01:08:42;;;;;;;13.40;9.30;;;;;;;-3.48;78.84;96688.46;108120;1270;32971;-76
2022/04/04 01:11:13;;;;;;;17.30;10.30;;;;;;;-3.51;79.05;96690.66;108092;1270;46084;-76
2022/04/04 01:13:49;;;;;;;17.40;10.50;;;;;;;-3.51;78.96;96691.10;108053;1270;43727;-76
2022/04/04 01:16:20;;;;;;;16.00;10.10;;;;;;;-3.47;78.86;96688.90;108216;1270;35020;-76
2022/04/04 01:18:51;;;;;;;15.90;9.70;;;;;;;-3.45;78.57;96683.85;108118;1270;44992;-76
2022/04/04 01:21:22;;;;;;;13.60;8.30;;;;;;;-3.41;78.33;96685.90;108108;1270;35804;-76
2022/04/04 01:23:56;;;;;;;15.90;8.90;;;;;;;-3.39;78.28;96682.20;108110;1271;28767;-76
2022/04/04 01:26:27;;;;;;;17.00;10.80;;;;;;;-3.41;78.49;96681.16;108110;1270;36884;-76
2022/04/04 01:28:58;;;;;;;12.90;8.70;;;;;;;-3.43;78.59;96685.86;108087;1270;45982;-76
2022/04/04 01:31:29;;;;;;;13.20;6.60;;;;;;;-3.44;78.18;96682.49;108113;1270;35071;-76
2022/04/04 01:34:00;;;;;;;9.60;6.00;;;;;;;-3.42;77.75;96685.78;108018;1270;40415;-76
2022/04/04 01:36:31;;;;;;;11.00;7.10;;;;;;;-3.38;77.44;96681.52;108087;1270;27620;-76
2022/04/04 01:39:02;;;;;;;12.40;7.50;;;;;;;-3.33;76.97;96679.75;108037;1270;35638;-76
2022/04/04 01:41:34;;;;;;;11.80;7.40;;;;;;;-3.29;76.80;96677.18;108107;1270;38353;-76
2022/04/04 01:44:05;;;;;;;14.50;8.90;;;;;;;-3.29;76.86;96676.06;108072;1270;48426;-76
2022/04/04 01:46:36;;;;;;;16.60;10.20;;;;;;;-3.32;77.36;96672.47;108072;1270;41658;-76
2022/04/04 01:49:08;;;;;;;17.90;9.00;;;;;;;-3.36;77.66;96673.73;108118;1270;44449;-76
2022/04/04 01:51:40;;;;;;;13.70;9.80;;;;;;;-3.41;77.70;96671.02;108082;1270;49275;-76
2022/04/04 01:54:11;;;;;;;15.60;8.80;;;;;;;-3.43;77.74;96670.11;108053;1270;45005;-76
2022/04/04 01:56:43;;;;;;;17.40;9.20;;;;;;;-3.43;77.68;96669.23;108063;1271;31197;-76
2022/04/04 01:59:14;;;;;;;12.20;8.20;;;;;;;-3.43;77.70;96670.83;108104;1270;34217;-76
2022/04/04 02:01:45;;;;;;;15.10;8.60;;;;;;;-3.42;77.57;96669.79;108138;1270;33084;-76
2022/04/04 02:04:16;;;;;;;14.00;8.10;;;;;;;-3.43;77.70;96669.98;108069;1270;41312;-76
2022/04/04 02:06:47;;;;;;;12.80;8.00;;;;;;;-3.44;77.53;96671.94;108095;1270;43843;-76
2022/04/04 02:09:18;;;;;;;13.50;7.90;;;;;;;-3.45;77.69;96667.34;108124;1270;42155;-76
2022/04/04 02:11:49;;;;;;;15.10;9.60;;;;;;;-3.45;77.70;96664.20;108131;1271;29182;-76
2022/04/04 02:14:20;;;;;;;15.50;9.70;;;;;;;-3.47;77.87;96660.95;108072;1269;34791;-76
2022/04/04 02:16:51;;;;;;;16.00;9.10;;;;;;;-3.51;77.79;96663.13;108087;1271;33983;-76
2022/04/04 02:19:22;;;;;;;17.90;10.30;;;;;;;-3.53;77.85;96665.45;108055;1271;45936;-76
2022/04/04 02:21:53;;;;;;;17.50;10.70;;;;;;;-3.56;77.97;96662.39;108045;1271;48010;-76
2022/04/04 02:24:24;;;;;;;13.60;8.30;;;;;;;-3.59;77.93;96658.67;108160;1270;43342;-76
2022/04/04 02:26:55;;;;;;;14.80;9.90;;;;;;;-3.60;78.03;96653.88;108059;1270;46972;-76
2022/04/04 02:29:26;;;;;;;15.00;9.60;;;;;;;-3.64;78.37;96651.55;108080;1270;44181;-76
2022/04/04 02:31:57;;;;;;;14.70;9.00;;;;;;;-3.69;78.53;96648.38;108088;1270;52455;-76
2022/04/04 02:34:27;;;;;;;16.00;8.90;;;;;;;-3.73;78.38;96650.11;108099;1270;36207;-76
2022/04/04 02:36:58;;;;;;;16.30;10.00;;;;;;;-3.77;78.33;96642.67;108143;1270;30746;-76
2022/04/04 02:39:29;;;;;;;12.10;8.20;;;;;;;-3.80;78.32;96645.39;108123;1270;38809;-76
2022/04/04 02:42:00;;;;;;;14.40;8.80;;;;;;;-3.85;78.24;96643.15;108100;1270;30029;-76
2022/04/04 02:44:31;;;;;;;16.30;9.40;;;;;;;-3.89;78.29;96644.29;108154;1271;40684;-76
2022/04/04 02:47:04;;;;;;;15.90;9.70;;;;;;;-3.92;78.24;96642.75;108095;1271;32297;-76
2022/04/04 02:49:36;;;;;;;12.20;8.70;;;;;;;-3.93;78.41;96641.31;108045;1271;33503;-76
2022/04/04 02:52:08;;;;;;;16.00;8.80;;;;;;;-3.94;78.40;96638.69;108039;1271;33109;-76
2022/04/04 02:54:39;;;;;;;12.60;8.70;;;;;;;-3.97;78.39;96634.48;108126;1270;32406;-76
2022/04/04 02:57:10;;;;;;;12.20;7.80;;;;;;;-3.98;78.37;96635.16;108049;1271;34944;-77
2022/04/04 02:59:41;;;;;;;12.60;6.90;;;;;;;-3.99;78.41;96636.31;108094;1270;40639;-76
2022/04/04 03:02:12;;;;;;;11.70;7.30;;;;;;;-3.99;78.29;96633.59;108029;1270;46509;-76
2022/04/04 03:04:43;;;;;;;13.10;8.00;;;;;;;-4.01;78.27;96633.17;108096;1270;32710;-76
2022/04/04 03:07:14;;;;;;;15.00;9.00;;;;;;;-4.00;78.21;96633.59;108116;1270;32481;-76
2022/04/04 03:09:45;;;;;;;11.60;7.80;;;;;;;-3.99;78.08;96635.46;108114;1270;45511;-76
2022/04/04 03:12:16;;;;;;;13.60;7.70;;;;;;;-3.95;78.02;96637.21;108015;1270;82753;-76
2022/04/04 03:14:47;;;;;;;14.50;8.30;;;;;;;-3.93;77.97;96634.39;108117;1271;47323;-76
2022/04/04 03:17:18;;;;;;;13.50;7.50;;;;;;;-3.91;77.87;96635.59;108119;1271;35973;-76
2022/04/04 03:19:49;;;;;;;11.90;7.70;;;;;;;-3.92;77.78;96632.88;108093;1269;33748;-77
2022/04/04 03:22:20;;;;;;;12.20;8.40;;;;;;;-3.93;77.78;96628.92;108131;1270;40556;-76
2022/04/04 03:24:51;;;;;;;10.80;7.00;;;;;;;-3.96;77.94;96627.55;108138;1270;34541;-76
2022/04/04 03:27:22;;;;;;;14.40;8.60;;;;;;;-3.99;77.88;96628.73;108137;1270;40039;-76
2022/04/04 03:29:53;;;;;;;15.80;9.10;;;;;;;-4.02;77.90;96629.11;108140;1270;39103;-75
2022/04/04 03:32:24;;;;;;;13.20;7.60;;;;;;;-4.06;77.96;96627.36;108129;1271;43117;-76
2022/04/04 03:34:55;;;;;;;11.50;8.40;;;;;;;-4.10;77.94;96624.89;108114;1270;32508;-76
2022/04/04 03:37:26;;;;;;;14.00;8.60;;;;;;;-4.12;78.17;96622.27;108018;1270;49613;-76
2022/04/04 03:39:56;;;;;;;16.10;9.90;;;;;;;-4.15;78.25;96623.14;108110;1271;29216;-76
2022/04/04 03:42:28;;;;;;;10.30;5.90;;;;;;;-4.15;78.45;96621.90;108102;1270;35786;-76
2022/04/04 03:45:00;;;;;;;16.10;9.80;;;;;;;-4.15;78.62;96624.17;108171;1270;32392;-76
2022/04/04 03:47:31;;;;;;;7.80;6.40;;;;;;;-4.16;78.44;96626.36;108094;1271;37669;-77
2022/04/04 03:50:02;;;;;;;14.70;9.60;;;;;;;-4.17;78.48;96625.63;108099;1270;36332;-76
2022/04/04 03:52:34;;;;;;;16.20;11.00;;;;;;;-4.20;78.47;96620.95;108031;1271;33947;-76
2022/04/04 03:55:07;;;;;;;17.90;10.00;;;;;;;-4.22;78.46;96620.98;108045;1271;70519;-76
2022/04/04 03:57:39;;;;;;;13.20;8.40;;;;;;;-4.26;78.43;96623.75;108042;1270;36447;-76
2022/04/04 04:00:13;;;;;;;14.50;8.10;;;;;;;-4.32;78.38;96618.77;108083;1270;31124;-76
2022/04/04 04:02:44;;;;;;;9.10;7.00;;;;;;;-4.38;78.40;96622.05;108071;1271;41247;-76
2022/04/04 04:05:15;;;;;;;10.80;6.50;;;;;;;-4.40;78.25;96623.52;108058;1271;52021;-76
2022/04/04 04:07:46;;;;;;;10.30;6.70;;;;;;;-4.39;78.24;96624.05;108004;1271;61905;-76
2022/04/04 04:10:17;;;;;;;9.60;4.80;;;;;;;-4.37;77.94;96624.11;107983;1271;48135;-76
2022/04/04 04:12:49;;;;;;;8.00;4.90;;;;;;;-4.36;77.81;96620.34;108026;1271;33937;-76
2022/04/04 04:15:23;;;;;;;9.00;5.20;;;;;;;-4.38;77.79;96620.59;107994;1271;40873;-75
2022/04/04 04:17:54;;;;;;;8.50;5.60;;;;;;;-4.37;77.82;96623.08;108015;1271;58025;-76
2022/04/04 04:20:29;;;;;;;9.50;6.30;;;;;;;-4.36;77.76;96623.23;108036;1271;47115;-76
2022/04/04 04:23:02;;;;;;;5.50;3.70;;;;;;;-4.35;77.54;96621.61;108069;1270;35800;-76
2022/04/04 04:25:35;;;;;;;9.90;6.50;;;;;;;-4.35;77.55;96626.39;108042;1271;40146;-76
2022/04/04 04:28:09;;;;;;;12.60;6.10;;;;;;;-4.34;77.65;96629.18;108025;1270;43098;-76
2022/04/04 04:30:41;;;;;;;7.10;4.10;;;;;;;-4.31;77.78;96627.77;108011;1271;44793;-76
2022/04/04 04:33:12;;;;;;;6.70;3.40;;;;;;;-4.27;77.73;96626.29;108054;1271;35370;-76
2022/04/04 04:35:44;;;;;;;8.20;4.90;;;;;;;-4.23;77.66;96622.55;108058;1271;40938;-76
2022/04/04 04:38:14;;;;;;;8.30;5.60;;;;;;;-4.21;77.47;96617.52;107959;1271;49655;-76
2022/04/04 04:40:46;;;;;;;9.00;5.90;;;;;;;-4.25;77.46;96617.94;107987;1271;42648;-76
2022/04/04 04:43:17;;;;;;;12.40;6.70;;;;;;;-4.30;77.23;96617.63;108011;1271;36209;-76
2022/04/04 04:45:48;;;;;;;9.80;6.70;;;;;;;-4.30;77.36;96616.42;107992;1271;48558;-76
2022/04/04 04:48:20;;;;;;;12.20;7.60;;;;;;;-4.25;77.24;96616.23;108005;1271;35708;-76
2022/04/04 04:50:51;;;;;;;10.70;7.70;;;;;;;-4.06;77.18;96614.02;108084;1270;51704;-76
2022/04/04 04:53:22;;;;;;;11.80;7.40;;;;;;;-3.50;76.94;96618.19;108109;1271;31310;-76
2022/04/04 04:55:53;;;;;;;12.80;7.80;;;;;;;-2.83;76.38;96619.02;108079;1271;40858;-77
2022/04/04 04:58:25;;;;;;;10.30;7.10;;;;;;;-2.22;75.11;96613.09;108080;1271;52748;-76
2022/04/04 05:00:56;;;;;;;10.60;6.40;;;;;;;-1.74;73.36;96616.48;108034;1271;37098;-77
2022/04/04 05:03:27;;;;;;;9.90;6.70;;;;;;;-1.33;72.40;96625.73;108024;1270;45540;-77
2022/04/04 05:05:58;;;;;;;10.90;7.10;;;;;;;-0.86;71.23;96624.48;108057;1271;45246;-77
2022/04/04 05:08:29;;;;;;;10.60;6.20;;;;;;;-0.37;70.70;96627.41;108020;1271;36347;-77
2022/04/04 05:11:01;;;;;;;10.70;7.20;;;;;;;-0.00;69.12;96624.23;108015;1271;35272;-77
2022/04/04 05:13:32;;;;;;;9.30;6.70;;;;;;;0.39;68.49;96624.50;108037;1271;41270;-77
2022/04/04 05:16:07;;;;;;;11.20;6.50;;;;;;;0.68;66.21;96627.69;108024;1271;34254;-77
2022/04/04 05:18:38;;;;;;;11.40;7.00;;;;;;;0.83;64.95;96628.08;107981;1271;43611;-77
2022/04/04 05:21:09;;;;;;;9.10;6.90;;;;;;;1.07;63.99;96631.65;107959;1271;38457;-77
2022/04/04 05:23:41;;;;;;;10.10;6.90;;;;;;;1.39;63.49;96626.34;107994;1271;40126;-77
2022/04/04 05:26:13;;;;;;;9.30;6.70;;;;;;;1.74;62.54;96623.36;107998;1271;40014;-76
2022/04/04 05:28:44;;;;;;;10.60;7.20;;;;;;;2.08;61.78;96624.45;108011;1270;36593;-76
2022/04/04 05:31:15;;;;;;;9.30;6.80;;;;;;;2.41;61.04;96630.89;108056;1271;40377;-77
2022/04/04 05:33:46;;;;;;;10.50;6.90;;;;;;;2.72;60.46;96632.77;108021;1270;32983;-76
2022/04/04 05:36:20;;;;;;;9.10;6.80;;;;;;;3.13;59.17;96627.11;108067;1271;38676;-76
2022/04/04 05:38:51;;;;;;;9.50;6.70;;;;;;;3.23;57.72;96632.67;108059;1271;35541;-77
2022/04/04 05:41:23;;;;;;;8.50;6.40;;;;;;;3.28;57.73;96629.16;108072;1270;34856;-76
2022/04/04 05:43:54;;;;;;;8.40;6.40;;;;;;;3.43;56.57;96633.02;108097;1271;36026;-76
2022/04/04 05:46:27;;;;;;;10.40;6.40;;;;;;;3.72;55.49;96631.00;108036;1271;35376;-76
2022/04/04 05:48:58;;;;;;;7.70;5.60;;;;;;;3.91;54.72;96629.16;108037;1271;33564;-76
2022/04/04 05:51:30;;;;;;;9.80;6.40;;;;;;;4.13;53.78;96629.02;108073;1270;33452;-76
2022/04/04 05:54:02;;;;;;;8.90;6.30;;;;;;;4.20;52.95;96628.92;108009;1271;31768;-76
2022/04/04 05:56:35;;;;;;;9.80;6.80;;;;;;;3.86;52.91;96630.06;108008;1269;50468;-77
2022/04/04 05:59:06;;;;;;;10.20;6.40;;;;;;;3.25;52.82;96630.40;108016;1270;39197;-76
2022/04/04 06:01:37;;;;;;;9.90;6.60;;;;;;;3.64;52.71;96625.45;108028;1270;37515;-76
2022/04/04 06:04:08;;;;;;;8.90;6.40;;;;;;;4.29;52.51;96621.93;107979;1271;42304;-76
2022/04/04 06:06:40;;;;;;;9.70;6.70;;;;;;;4.76;51.09;96619.26;107991;1270;41530;-76
2022/04/04 06:09:11;;;;;;;12.20;6.70;;;;;;;4.90;50.39;96618.81;108010;1271;35540;-75
2022/04/04 06:11:42;;;;;;;12.30;8.10;;;;;;;5.17;50.48;96620.86;107950;1270;37486;-76
2022/04/04 06:14:13;;;;;;;9.10;6.80;;;;;;;5.71;50.09;96615.88;108053;1271;41684;-76
2022/04/04 06:16:44;;;;;;;10.00;7.30;;;;;;;5.87;49.43;96612.64;108007;1271;34596;-75
2022/04/04 06:19:16;;;;;;;6.90;5.00;;;;;;;6.38;48.47;96609.92;108029;1271;38101;-75
2022/04/04 06:21:47;;;;;;;8.20;6.10;;;;;;;6.10;46.71;96606.41;108009;1270;41674;-75
2022/04/04 06:24:18;;;;;;;9.50;6.80;;;;;;;6.01;46.63;96602.23;108029;1270;33943;-75
2022/04/04 06:26:49;;;;;;;9.00;6.20;;;;;;;5.80;46.13;96606.20;108023;1270;47970;-76
2022/04/04 06:29:21;;;;;;;11.00;7.30;;;;;;;5.79;46.42;96606.71;108074;1270;37510;-75
2022/04/04 06:31:52;;;;;;;7.40;5.30;;;;;;;6.34;47.35;96609.98;108125;1270;32032;-75
2022/04/04 06:34:24;;;;;;;9.40;7.10;;;;;;;6.98;46.32;96609.92;108114;1271;31761;-76
2022/04/04 06:36:56;;;;;;;8.30;6.90;;;;;;;7.45;45.19;96613.27;107926;1273;42501;-76
2022/04/04 06:39:28;;;;;;;9.20;7.30;;;;;;;7.85;45.01;96612.63;108027;1270;42662;-76
2022/04/04 06:41:59;;;;;;;9.10;7.00;;;;;;;8.06;44.13;96609.70;108031;1270;44961;-76
2022/04/04 06:44:30;;;;;;;8.70;6.10;;;;;;;7.99;43.55;96607.15;107979;1270;47126;-75
2022/04/04 06:47:01;;;;;;;10.20;7.10;;;;;;;7.61;42.51;96605.05;108033;1270;52397;-76
2022/04/04 06:49:33;;;;;;;9.00;7.00;;;;;;;7.56;42.92;96606.56;107971;1271;41574;-75
2022/04/04 06:52:04;;;;;;;6.60;5.50;;;;;;;7.69;41.79;96597.84;108031;1271;35175;-75
2022/04/04 06:54:35;;;;;;;10.90;6.30;;;;;;;7.37;42.25;96596.57;107956;1271;44225;-75
2022/04/04 06:57:06;;;;;;;8.20;6.50;;;;;;;7.39;42.50;96594.27;108033;1270;35766;-75
2022/04/04 06:59:38;;;;;;;9.40;6.20;;;;;;;7.45;43.00;96593.65;108001;1270;41475;-75
2022/04/04 07:02:09;;;;;;;8.30;5.70;;;;;;;6.76;43.28;96589.50;108031;1270;30307;-75
2022/04/04 07:04:40;;;;;;;8.20;4.50;;;;;;;6.56;44.24;96593.20;107990;1271;43476;-75
2022/04/04 07:07:12;;;;;;;6.80;5.00;;;;;;;6.29;42.74;96583.20;108052;1270;35283;-75
2022/04/04 07:09:43;;;;;;;9.50;7.30;;;;;;;5.65;43.72;96582.02;108005;1270;47361;-75
2022/04/04 07:12:14;;;;;;;7.70;4.90;;;;;;;5.80;44.53;96589.06;108050;1270;43292;-75
2022/04/04 07:14:45;;;;;;;6.60;4.30;;;;;;;6.03;43.06;96574.30;108026;1270;41771;-74
2022/04/04 07:17:16;;;;;;;9.90;7.30;;;;;;;5.53;43.86;96584.91;108028;1270;46280;-74
2022/04/04 07:19:48;;;;;;;7.80;5.30;;;;;;;6.05;44.10;96584.36;108028;1270;38450;-74
2022/04/04 07:22:18;;;;;;;11.70;7.70;;;;;;;6.19;42.59;96583.86;108034;1270;33038;-74
2022/04/04 07:24:50;;;;;;;10.00;7.40;;;;;;;6.34;43.46;96572.81;108009;1270;34748;-74
2022/04/04 07:27:21;;;;;;;8.50;6.20;;;;;;;6.76;43.74;96579.39;108067;1270;45671;-75
2022/04/04 07:29:52;;;;;;;10.10;7.40;;;;;;;7.32;42.61;96580.62;108066;1270;33546;-74
2022/04/04 07:32:23;;;;;;;8.00;5.40;;;;;;;7.61;41.33;96572.65;108103;1270;28107;-74
2022/04/04 07:34:54;;;;;;;8.10;5.60;;;;;;;7.22;42.08;96577.15;108073;1270;45721;-74
2022/04/04 07:37:25;;;;;;;6.90;5.30;;;;;;;7.86;41.56;96572.50;108089;1270;43392;-74
2022/04/04 07:39:58;;;;;;;9.80;6.70;;;;;;;8.07;41.39;96576.29;108039;1270;44457;-74
2022/04/04 07:42:30;;;;;;;7.60;5.00;;;;;;;8.60;40.43;96566.91;108030;1270;42396;-74
2022/04/04 07:45:01;;;;;;;6.60;5.60;;;;;;;8.33;39.92;96568.13;108029;1270;39426;-74
2022/04/04 07:47:32;;;;;;;5.90;5.00;;;;;;;8.29;39.93;96565.16;108055;1270;39731;-74
2022/04/04 07:50:04;;;;;;;7.30;6.10;;;;;;;8.04;39.60;96564.60;108011;1270;44883;-74
2022/04/04 07:52:36;;;;;;;6.50;4.20;;;;;;;8.12;40.98;96568.52;108018;1270;47161;-74
2022/04/04 07:55:09;;;;;;;8.00;6.20;;;;;;;8.41;39.39;96563.95;108021;1270;43776;-73
2022/04/04 07:57:41;;;;;;;5.90;4.20;;;;;;;8.34;39.13;96560.73;107942;1271;45741;-74
2022/04/04 08:00:17;;;;;;;6.60;5.80;;;;;;;8.17;39.85;96563.55;108071;1270;40779;-74
2022/04/04 08:02:49;;;;;;;4.00;3.60;;;;;;;8.14;38.81;96553.90;108021;1270;45422;-73
2022/04/04 08:05:21;;;;;;;8.20;4.80;;;;;;;7.51;40.10;96568.66;108080;1270;28907;-73
2022/04/04 08:07:52;;;;;;;7.30;5.40;;;;;;;7.93;40.73;96564.27;108208;1270;40366;-74
2022/04/04 08:10:23;;;;;;;6.10;3.90;;;;;;;8.39;39.14;96562.42;108075;1270;42601;-73
2022/04/04 08:12:55;;;;;;;7.00;4.50;;;;;;;7.65;39.20;96558.31;108087;1270;44139;-73
2022/04/04 08:15:26;;;;;;;5.00;4.00;;;;;;;7.28;40.90;96562.15;108037;1270;46164;-75
2022/04/04 08:18:02;;;;;;;5.60;4.20;;;;;;;7.43;40.07;96559.20;107980;1270;40038;-74
2022/04/04 08:20:35;;;;;;;4.50;4.00;;;;;;;7.20;40.07;96567.77;108062;1270;32975;-74
2022/04/04 08:23:06;;;;;;;4.70;3.80;;;;;;;6.97;40.40;96562.33;108022;1270;40252;-73
2022/04/04 08:25:37;;;;;;;9.60;4.00;;;;;;;6.77;40.83;96566.01;108057;1270;40127;-73
2022/04/04 08:28:08;;;;;;;6.30;4.10;;;;;;;6.78;41.41;96562.97;108089;1270;29608;-73
2022/04/04 08:30:39;;;;;;;4.90;4.10;;;;;;;6.95;40.86;96559.36;108059;1270;27018;-73
2022/04/04 08:33:10;;;;;;;5.60;4.60;;;;;;;7.01;41.66;96557.18;108009;1271;32158;-73
2022/04/04 08:35:41;;;;;;;6.10;4.30;;;;;;;7.27;41.80;96553.96;108017;1269;39883;-73
2022/04/04 08:38:12;;;;;;;7.20;5.30;;;;;;;7.42;41.15;96553.08;107963;1270;42398;-73
2022/04/04 08:40:45;;;;;;;7.40;5.90;;;;;;;7.61;41.11;96549.77;108043;1270;39168;-73
2022/04/04 08:43:19;;;;;;;5.50;4.30;;;;;;;8.02;41.18;96547.13;108044;1270;32187;-73
2022/04/04 08:45:52;;;;;;;6.90;6.00;;;;;;;8.23;40.41;96541.75;108115;1270;29741;-73
2022/04/04 08:48:23;;;;;;;6.50;4.70;;;;;;;8.32;40.50;96539.92;108065;1271;41228;-73
2022/04/04 08:50:54;;;;;;;6.10;4.20;;;;;;;8.49;40.53;96542.19;108096;1268;43985;-73
2022/04/04 08:53:25;;;;;;;6.30;4.50;;;;;;;8.17;40.15;96539.33;108067;1270;40624;-73
2022/04/04 08:55:57;;;;;;;8.60;5.90;;;;;;;8.09;40.43;96536.79;108039;1270;42504;-74
2022/04/04 08:58:28;;;;;;;6.70;4.40;;;;;;;8.17;40.27;96542.96;108017;1270;47715;-73
2022/04/04 09:01:00;;;;;;;4.50;3.70;;;;;;;7.61;40.48;96543.16;108036;1269;46145;-73
2022/04/04 09:03:31;;;;;;;5.40;3.80;;;;;;;7.49;41.85;96541.70;108028;1269;42952;-73
2022/04/04 09:06:05;;;;;;;7.80;5.20;;;;;;;7.69;43.16;96545.75;108035;1269;43873;-73
2022/04/04 09:08:47;;;;;;;7.50;5.60;;;;;;;8.29;42.15;96530.92;108038;1270;47647;-73
2022/04/04 09:11:19;;;;;;;8.00;5.90;;;;;;;8.74;42.68;96527.08;108136;1270;38917;-72
2022/04/04 09:14:06;;;;;;;8.50;5.50;;;;;;;9.13;41.91;96523.47;108077;1270;40088;-73
2022/04/04 09:16:40;;;;;;;5.50;4.20;;;;;;;8.08;40.98;96520.98;108028;1270;44293;-73
2022/04/04 09:19:12;;;;;;;6.10;4.00;;;;;;;6.91;42.56;96521.91;108041;1270;43434;-73
2022/04/04 09:21:50;;;;;;;6.10;3.60;;;;;;;6.03;44.10;96518.39;108187;1270;40604;-73
2022/04/04 09:24:22;;;;;;;6.90;5.20;;;;;;;4.92;45.62;96516.55;108094;1270;43166;-72
2022/04/04 09:26:54;;;;;;;9.00;5.70;;;;;;;4.29;47.79;96514.09;108116;1270;43359;-73
2022/04/04 09:29:25;;;;;;;8.00;6.20;;;;;;;3.98;49.20;96510.88;108146;1270;44446;-73
2022/04/04 09:31:59;;;;;;;7.20;5.40;;;;;;;3.79;49.62;96507.70;108021;1270;44097;-75
2022/04/04 09:34:31;;;;;;;8.00;6.20;;;;;;;3.44;50.59;96510.97;108023;1271;45062;-73
2022/04/04 09:37:02;;;;;;;5.90;3.80;;;;;;;3.52;51.22;96500.11;108046;1270;41128;-73
2022/04/04 09:39:36;;;;;;;8.60;6.10;;;;;;;3.38;51.80;96507.61;108076;1270;25707;-73
2022/04/04 09:42:16;;;;;;;6.70;4.30;;;;;;;3.64;52.16;96499.27;108033;1270;43832;-73
2022/04/04 09:45:01;;;;;;;6.00;3.70;;;;;;;3.72;51.94;96488.19;108040;1270;41802;-73
2022/04/04 09:47:50;;;;;;;6.40;4.80;;;;;;;3.35;52.47;96476.90;108047;1270;41884;-73
2022/04/04 09:50:41;;;;;;;7.40;5.50;;;;;;;3.18;52.78;96487.82;108064;1270;41344;-72
2022/04/04 09:53:15;;;;;;;6.40;4.80;;;;;;;3.44;52.79;96487.02;108024;1270;43493;-73
2022/04/04 09:55:48;;;;;;;5.90;4.60;;;;;;;3.59;53.03;96481.92;108103;1270;32125;-73
2022/04/04 09:58:21;;;;;;;6.40;5.00;;;;;;;3.65;53.64;96481.88;108063;1270;41232;-74
2022/04/04 10:00:53;;;;;;;5.00;3.90;;;;;;;3.94;53.42;96474.89;108109;1269;45183;-73
2022/04/04 10:03:25;;;;;;;7.80;4.70;;;;;;;3.85;52.56;96468.08;108082;1270;46407;-73
2022/04/04 10:06:01;;;;;;;7.20;4.50;;;;;;;3.77;53.49;96479.61;108031;1270;45230;-74
2022/04/04 10:08:36;;;;;;;5.10;3.30;;;;;;;3.69;52.56;96469.47;108058;1270;42155;-73
2022/04/04 10:11:09;;;;;;;5.20;3.20;;;;;;;3.40;53.20;96463.63;108087;1269;30251;-73
2022/04/04 10:13:40;;;;;;;6.50;3.80;;;;;;;3.36;53.48;96459.09;107963;1273;36656;-72
2022/04/04 10:16:13;;;;;;;6.10;3.90;;;;;;;3.36;53.38;96457.16;108048;1270;61061;-72
2022/04/04 10:18:47;;;;;;;7.40;4.80;;;;;;;3.32;54.51;96460.02;108067;1270;45102;-72
2022/04/04 10:21:19;;;;;;;6.10;4.70;;;;;;;3.33;53.84;96452.23;108143;1271;29686;-72
2022/04/04 10:23:53;;;;;;;5.30;3.90;;;;;;;3.29;53.79;96453.13;108136;1270;42294;-72
2022/04/04 10:26:29;;;;;;;5.10;3.70;;;;;;;3.31;54.38;96446.34;108088;1270;53789;-72
2022/04/04 10:29:18;;;;;;;5.30;4.00;;;;;;;3.45;54.11;96443.28;108081;1270;44594;-73
2022/04/04 10:31:51;;;;;;;6.70;5.00;;;;;;;3.50;54.39;96448.40;108087;1270;43006;-72
2022/04/04 10:34:23;;;;;;;4.60;3.30;;;;;;;3.83;54.21;96439.43;108118;1270;47146;-72
2022/04/04 10:36:59;;;;;;;6.70;4.40;;;;;;;3.76;53.09;96436.48;108124;1270;30234;-72
2022/04/04 10:39:47;;;;;;;6.50;4.20;;;;;;;3.51;53.28;96431.58;108077;1270;42917;-73
2022/04/04 10:42:36;;;;;;;4.30;3.50;;;;;;;3.40;53.71;96430.46;108042;1270;45097;-72
2022/04/04 10:45:12;;;;;;;4.00;3.10;;;;;;;3.53;54.05;96428.53;108069;1270;38529;-73
2022/04/04 10:47:45;;;;;;;3.80;3.40;;;;;;;3.71;54.02;96424.56;108043;1270;54832;-73
2022/04/04 10:50:30;;;;;;;4.80;3.60;;;;;;;3.72;54.05;96427.14;108079;1270;46217;-72
2022/04/04 10:53:04;;;;;;;5.20;4.00;;;;;;;3.93;54.13;96417.21;108033;1270;41702;-73
2022/04/04 10:55:55;;;;;;;4.00;3.20;;;;;;;3.97;53.69;96420.60;107959;1270;42451;-72
2022/04/04 10:58:27;;;;;;;4.20;2.80;;;;;;;3.96;53.43;96416.50;108086;1270;28260;-73
2022/04/04 11:01:07;;;;;;;3.90;3.30;;;;;;;3.91;53.35;96409.77;108024;1270;44102;-73
2022/04/04 11:03:40;;;;;;;6.00;2.90;;;;;;;3.78;53.46;96406.48;107999;1270;43583;-72
2022/04/04 11:09:11;;;;;;;4.90;3.10;;;;;;;3.88;53.62;96401.38;108055;1270;44615;-73
2022/04/04 11:11:45;;;;;;;;;;;;;;;4.07;52.72;96397.13;108107;1270;34339;-72
2022/04/04 11:14:16;;;;;;;5.00;3.60;;;;;;;4.02;52.57;96402.98;108117;1270;41486;-72
2022/04/04 11:20:33;;;;;;;6.40;4.50;;;;;;;4.48;53.37;96389.63;108021;1270;45433;-72
2022/04/04 11:23:09;;;;;;;5.10;3.30;;;;;;;4.59;52.71;96385.97;108077;1270;33576;-72
2022/04/04 11:25:48;;;;;;;2.60;2.40;;;;;;;4.36;52.02;96382.17;108078;1270;38680;-72
2022/04/04 11:28:22;;;;;;;4.30;2.60;;;;;;;4.16;52.36;96380.63;108029;1271;39862;-73
2022/04/04 11:31:03;;;;;;;6.40;4.70;;;;;;;4.20;52.73;96377.41;108102;1270;31116;-72
2022/04/04 11:33:44;;;;;;;4.50;3.20;;;;;;;4.33;53.59;96373.96;108084;1270;30507;-73
2022/04/04 11:36:24;;;;;;;4.90;4.20;;;;;;;4.49;53.08;96365.86;108093;1270;32311;-73
2022/04/04 11:39:03;;;;;;;6.40;5.20;;;;;;;4.52;52.55;96363.95;108103;1271;34329;-73
2022/04/04 11:41:37;;;;;;;6.00;4.20;;;;;;;4.50;52.20;96372.33;108062;1270;44001;-73
2022/04/04 11:44:11;;;;;;;4.90;4.10;;;;;;;4.69;52.14;96369.17;108083;1270;38661;-72
2022/04/04 11:46:42;;;;;;;5.50;4.10;;;;;;;4.74;51.72;96359.30;108038;1271;29439;-73
2022/04/04 11:49:16;;;;;;;7.10;3.00;;;;;;;4.49;51.26;96357.14;108045;1270;46071;-73
2022/04/04 11:51:49;;;;;;;6.90;3.90;;;;;;;4.20;51.64;96343.58;108032;1270;39552;-74
2022/04/04 11:54:20;;;;;;;7.90;3.40;;;;;;;4.17;52.71;96345.48;108062;1270;38265;-73
2022/04/04 11:56:57;;;;;;;5.50;4.60;;;;;;;4.13;52.06;96344.08;108067;1270;40437;-73